sensor_id;sensor_type;location;lat;lon;timestamp;P1;durP1;ratioP1;P2;durP2;ratioP2
24897;SDS011;12957;49.434;8.684;2024-01-27T00:01:11;8.20;;;2.20;;
24897;SDS011;12957;49.434;8.684;2024-01-27T00:03:37;12.47;;;2.40;;
24897;SDS011;12957;49.434;8.684;2024-01-27T00:06:02;7.23;;;2.10;;
24897;SDS011;12957;49.434;8.684;2024-01-27T00:08:28;6.10;;;2.10;;
24897;SDS011;12957;49.434;8.684;2024-01-27T00:10:53;9.53;;;2.47;;
24897;SDS011;12957;49.434;8.684;2024-01-27T00:13:19;9.67;;;2.37;;
24897;SDS011;12957;49.434;8.684;2024-01-27T00:15:44;7.70;;;2.57;;
24897;SDS011;12957;49.434;8.684;2024-01-27T00:18:10;6.20;;;2.27;;
24897;SDS011;12957;49.434;8.684;2024-01-27T00:20:36;7.13;;;2.10;;
24897;SDS011;12957;49.434;8.684;2024-01-27T00:23:02;6.03;;;2.10;;
24897;SDS011;12957;49.434;8.684;2024-01-27T00:25:28;10.83;;;2.30;;
24897;SDS011;12957;49.434;8.684;2024-01-27T00:27:54;4.00;;;2.00;;
24897;SDS011;12957;49.434;8.684;2024-01-27T00:30:19;12.03;;;2.30;;
24897;SDS011;12957;49.434;8.684;2024-01-27T00:32:45;6.03;;;1.87;;
24897;SDS011;12957;49.434;8.684;2024-01-27T00:35:10;4.57;;;2.10;;
24897;SDS011;12957;49.434;8.684;2024-01-27T00:37:39;10.00;;;2.30;;
24897;SDS011;12957;49.434;8.684;2024-01-27T00:40:07;6.73;;;2.10;;
24897;SDS011;12957;49.434;8.684;2024-01-27T00:42:35;6.00;;;2.27;;
24897;SDS011;12957;49.434;8.684;2024-01-27T00:45:01;6.83;;;2.30;;
24897;SDS011;12957;49.434;8.684;2024-01-27T00:47:28;7.67;;;2.00;;
24897;SDS011;12957;49.434;8.684;2024-01-27T00:49:53;9.40;;;2.10;;
24897;SDS011;12957;49.434;8.684;2024-01-27T00:52:19;7.03;;;2.30;;
24897;SDS011;12957;49.434;8.684;2024-01-27T00:54:45;11.53;;;2.00;;
24897;SDS011;12957;49.434;8.684;2024-01-27T00:57:10;6.00;;;2.03;;
24897;SDS011;12957;49.434;8.684;2024-01-27T00:59:36;7.20;;;2.37;;
24897;SDS011;12957;49.434;8.684;2024-01-27T01:02:02;9.20;;;2.27;;
24897;SDS011;12957;49.434;8.684;2024-01-27T01:04:27;7.77;;;2.33;;
24897;SDS011;12957;49.434;8.684;2024-01-27T01:06:53;7.60;;;2.40;;
24897;SDS011;12957;49.434;8.684;2024-01-27T01:09:19;9.30;;;2.47;;
24897;SDS011;12957;49.434;8.684;2024-01-27T01:11:44;7.43;;;2.53;;
24897;SDS011;12957;49.434;8.684;2024-01-27T01:14:10;8.23;;;2.40;;
24897;SDS011;12957;49.434;8.684;2024-01-27T01:16:35;6.73;;;2.10;;
24897;SDS011;12957;49.434;8.684;2024-01-27T01:19:01;8.97;;;2.47;;
24897;SDS011;12957;49.434;8.684;2024-01-27T01:21:26;6.97;;;2.20;;
24897;SDS011;12957;49.434;8.684;2024-01-27T01:23:52;11.13;;;2.40;;
24897;SDS011;12957;49.434;8.684;2024-01-27T01:26:17;10.57;;;3.27;;
24897;SDS011;12957;49.434;8.684;2024-01-27T01:28:43;7.90;;;2.13;;
24897;SDS011;12957;49.434;8.684;2024-01-27T01:31:08;8.00;;;2.40;;
24897;SDS011;12957;49.434;8.684;2024-01-27T01:33:34;14.60;;;2.33;;
24897;SDS011;12957;49.434;8.684;2024-01-27T01:35:59;10.10;;;2.73;;
24897;SDS011;12957;49.434;8.684;2024-01-27T01:38:25;7.47;;;2.70;;
24897;SDS011;12957;49.434;8.684;2024-01-27T01:40:50;9.67;;;3.13;;
24897;SDS011;12957;49.434;8.684;2024-01-27T01:43:16;6.43;;;2.10;;
24897;SDS011;12957;49.434;8.684;2024-01-27T01:45:41;8.83;;;2.47;;
24897;SDS011;12957;49.434;8.684;2024-01-27T01:48:07;10.07;;;2.70;;
24897;SDS011;12957;49.434;8.684;2024-01-27T01:50:33;9.93;;;2.20;;
24897;SDS011;12957;49.434;8.684;2024-01-27T01:52:59;7.63;;;2.47;;
24897;SDS011;12957;49.434;8.684;2024-01-27T01:55:25;6.33;;;2.60;;
24897;SDS011;12957;49.434;8.684;2024-01-27T01:57:51;3.40;;;2.30;;
24897;SDS011;12957;49.434;8.684;2024-01-27T02:00:16;6.43;;;2.70;;
24897;SDS011;12957;49.434;8.684;2024-01-27T02:02:45;6.70;;;2.53;;
24897;SDS011;12957;49.434;8.684;2024-01-27T02:05:11;7.67;;;2.47;;
24897;SDS011;12957;49.434;8.684;2024-01-27T02:07:37;12.97;;;2.83;;
24897;SDS011;12957;49.434;8.684;2024-01-27T02:10:03;9.30;;;2.47;;
24897;SDS011;12957;49.434;8.684;2024-01-27T02:12:28;8.30;;;2.20;;
24897;SDS011;12957;49.434;8.684;2024-01-27T02:14:54;5.83;;;2.40;;
24897;SDS011;12957;49.434;8.684;2024-01-27T02:17:19;8.53;;;2.50;;
24897;SDS011;12957;49.434;8.684;2024-01-27T02:19:45;14.73;;;2.80;;
24897;SDS011;12957;49.434;8.684;2024-01-27T02:22:10;5.07;;;2.83;;
24897;SDS011;12957;49.434;8.684;2024-01-27T02:24:36;12.20;;;2.83;;
24897;SDS011;12957;49.434;8.684;2024-01-27T02:27:01;16.50;;;2.60;;
24897;SDS011;12957;49.434;8.684;2024-01-27T02:29:27;5.83;;;2.27;;
24897;SDS011;12957;49.434;8.684;2024-01-27T02:31:53;12.03;;;2.63;;
24897;SDS011;12957;49.434;8.684;2024-01-27T02:34:19;20.17;;;3.20;;
24897;SDS011;12957;49.434;8.684;2024-01-27T02:36:44;13.20;;;2.80;;
24897;SDS011;12957;49.434;8.684;2024-01-27T02:39:10;11.63;;;2.90;;
24897;SDS011;12957;49.434;8.684;2024-01-27T02:41:35;12.70;;;2.80;;
24897;SDS011;12957;49.434;8.684;2024-01-27T02:44:04;10.23;;;2.57;;
24897;SDS011;12957;49.434;8.684;2024-01-27T02:46:30;8.50;;;2.63;;
24897;SDS011;12957;49.434;8.684;2024-01-27T02:48:55;9.50;;;2.63;;
24897;SDS011;12957;49.434;8.684;2024-01-27T02:51:21;6.33;;;2.60;;
24897;SDS011;12957;49.434;8.684;2024-01-27T02:53:46;5.53;;;2.40;;
24897;SDS011;12957;49.434;8.684;2024-01-27T02:56:12;7.90;;;2.50;;
24897;SDS011;12957;49.434;8.684;2024-01-27T02:58:37;10.70;;;2.00;;
24897;SDS011;12957;49.434;8.684;2024-01-27T03:01:03;8.03;;;2.40;;
24897;SDS011;12957;49.434;8.684;2024-01-27T03:03:29;7.50;;;2.67;;
24897;SDS011;12957;49.434;8.684;2024-01-27T03:05:55;11.43;;;2.27;;
24897;SDS011;12957;49.434;8.684;2024-01-27T03:08:20;13.07;;;2.40;;
24897;SDS011;12957;49.434;8.684;2024-01-27T03:10:46;5.40;;;2.33;;
24897;SDS011;12957;49.434;8.684;2024-01-27T03:13:11;12.03;;;2.43;;
24897;SDS011;12957;49.434;8.684;2024-01-27T03:15:37;11.47;;;2.50;;
24897;SDS011;12957;49.434;8.684;2024-01-27T03:18:03;8.40;;;2.60;;
24897;SDS011;12957;49.434;8.684;2024-01-27T03:20:28;7.10;;;2.20;;
24897;SDS011;12957;49.434;8.684;2024-01-27T03:22:56;6.63;;;2.23;;
24897;SDS011;12957;49.434;8.684;2024-01-27T03:25:22;7.10;;;2.50;;
24897;SDS011;12957;49.434;8.684;2024-01-27T03:27:47;10.60;;;2.83;;
24897;SDS011;12957;49.434;8.684;2024-01-27T03:30:13;11.63;;;2.70;;
24897;SDS011;12957;49.434;8.684;2024-01-27T03:32:38;10.90;;;2.87;;
24897;SDS011;12957;49.434;8.684;2024-01-27T03:35:04;9.20;;;2.87;;
24897;SDS011;12957;49.434;8.684;2024-01-27T03:37:30;9.80;;;2.90;;
24897;SDS011;12957;49.434;8.684;2024-01-27T03:39:55;7.07;;;2.53;;
24897;SDS011;12957;49.434;8.684;2024-01-27T03:42:21;9.87;;;2.73;;
24897;SDS011;12957;49.434;8.684;2024-01-27T03:44:49;10.13;;;2.60;;
24897;SDS011;12957;49.434;8.684;2024-01-27T03:47:14;13.60;;;3.00;;
24897;SDS011;12957;49.434;8.684;2024-01-27T03:49:40;14.80;;;3.27;;
24897;SDS011;12957;49.434;8.684;2024-01-27T03:52:05;8.47;;;3.60;;
24897;SDS011;12957;49.434;8.684;2024-01-27T03:54:31;12.47;;;3.67;;
24897;SDS011;12957;49.434;8.684;2024-01-27T03:56:56;11.60;;;3.40;;
24897;SDS011;12957;49.434;8.684;2024-01-27T03:59:21;8.03;;;3.23;;
24897;SDS011;12957;49.434;8.684;2024-01-27T04:01:47;13.50;;;3.70;;
24897;SDS011;12957;49.434;8.684;2024-01-27T04:04:12;18.07;;;3.57;;
24897;SDS011;12957;49.434;8.684;2024-01-27T04:06:41;12.33;;;3.43;;
24897;SDS011;12957;49.434;8.684;2024-01-27T04:09:07;13.50;;;4.20;;
24897;SDS011;12957;49.434;8.684;2024-01-27T04:11:35;12.07;;;3.97;;
24897;SDS011;12957;49.434;8.684;2024-01-27T04:14:02;13.23;;;4.10;;
24897;SDS011;12957;49.434;8.684;2024-01-27T04:16:28;9.90;;;3.67;;
24897;SDS011;12957;49.434;8.684;2024-01-27T04:18:54;13.13;;;3.67;;
24897;SDS011;12957;49.434;8.684;2024-01-27T04:21:19;14.23;;;3.83;;
24897;SDS011;12957;49.434;8.684;2024-01-27T04:23:45;11.10;;;4.00;;
24897;SDS011;12957;49.434;8.684;2024-01-27T04:26:10;16.23;;;3.90;;
24897;SDS011;12957;49.434;8.684;2024-01-27T04:28:36;14.63;;;3.70;;
24897;SDS011;12957;49.434;8.684;2024-01-27T04:31:01;14.00;;;3.70;;
24897;SDS011;12957;49.434;8.684;2024-01-27T04:33:27;11.57;;;3.30;;
24897;SDS011;12957;49.434;8.684;2024-01-27T04:35:52;8.33;;;3.07;;
24897;SDS011;12957;49.434;8.684;2024-01-27T04:38:18;9.90;;;3.17;;
24897;SDS011;12957;49.434;8.684;2024-01-27T04:40:43;10.70;;;3.20;;
24897;SDS011;12957;49.434;8.684;2024-01-27T04:43:09;14.10;;;3.17;;
24897;SDS011;12957;49.434;8.684;2024-01-27T04:45:34;10.57;;;3.17;;
24897;SDS011;12957;49.434;8.684;2024-01-27T04:48:00;9.37;;;3.10;;
24897;SDS011;12957;49.434;8.684;2024-01-27T04:50:26;11.97;;;3.10;;
24897;SDS011;12957;49.434;8.684;2024-01-27T04:52:52;16.17;;;3.27;;
24897;SDS011;12957;49.434;8.684;2024-01-27T04:55:17;12.47;;;3.50;;
24897;SDS011;12957;49.434;8.684;2024-01-27T04:57:43;11.80;;;3.60;;
24897;SDS011;12957;49.434;8.684;2024-01-27T05:00:09;8.80;;;3.50;;
24897;SDS011;12957;49.434;8.684;2024-01-27T05:02:39;11.80;;;3.43;;
24897;SDS011;12957;49.434;8.684;2024-01-27T05:05:07;13.60;;;4.03;;
24897;SDS011;12957;49.434;8.684;2024-01-27T05:07:33;17.37;;;3.70;;
24897;SDS011;12957;49.434;8.684;2024-01-27T05:09:58;13.43;;;3.40;;
24897;SDS011;12957;49.434;8.684;2024-01-27T05:12:24;12.77;;;3.50;;
24897;SDS011;12957;49.434;8.684;2024-01-27T05:14:49;10.53;;;3.43;;
24897;SDS011;12957;49.434;8.684;2024-01-27T05:17:15;9.90;;;4.23;;
24897;SDS011;12957;49.434;8.684;2024-01-27T05:19:40;10.03;;;3.90;;
24897;SDS011;12957;49.434;8.684;2024-01-27T05:22:06;12.97;;;3.87;;
24897;SDS011;12957;49.434;8.684;2024-01-27T05:24:32;12.90;;;3.90;;
24897;SDS011;12957;49.434;8.684;2024-01-27T05:26:58;17.77;;;4.20;;
24897;SDS011;12957;49.434;8.684;2024-01-27T05:29:24;20.83;;;4.50;;
24897;SDS011;12957;49.434;8.684;2024-01-27T05:31:49;22.13;;;4.50;;
24897;SDS011;12957;49.434;8.684;2024-01-27T05:34:15;14.00;;;4.10;;
24897;SDS011;12957;49.434;8.684;2024-01-27T05:36:40;13.63;;;3.97;;
24897;SDS011;12957;49.434;8.684;2024-01-27T05:39:06;12.83;;;4.20;;
24897;SDS011;12957;49.434;8.684;2024-01-27T05:41:31;16.33;;;3.90;;
24897;SDS011;12957;49.434;8.684;2024-01-27T05:43:57;13.80;;;3.53;;
24897;SDS011;12957;49.434;8.684;2024-01-27T05:46:26;10.07;;;4.03;;
24897;SDS011;12957;49.434;8.684;2024-01-27T05:48:51;20.50;;;3.97;;
24897;SDS011;12957;49.434;8.684;2024-01-27T05:51:26;13.40;;;3.90;;
24897;SDS011;12957;49.434;8.684;2024-01-27T05:53:51;14.67;;;3.50;;
24897;SDS011;12957;49.434;8.684;2024-01-27T05:56:17;16.23;;;3.67;;
24897;SDS011;12957;49.434;8.684;2024-01-27T05:58:45;11.13;;;3.53;;
24897;SDS011;12957;49.434;8.684;2024-01-27T06:01:11;17.77;;;4.00;;
24897;SDS011;12957;49.434;8.684;2024-01-27T06:03:36;8.03;;;3.40;;
24897;SDS011;12957;49.434;8.684;2024-01-27T06:06:02;8.13;;;3.40;;
24897;SDS011;12957;49.434;8.684;2024-01-27T06:08:27;15.30;;;2.60;;
24897;SDS011;12957;49.434;8.684;2024-01-27T06:10:53;15.70;;;2.60;;
24897;SDS011;12957;49.434;8.684;2024-01-27T06:13:18;5.83;;;2.17;;
24897;SDS011;12957;49.434;8.684;2024-01-27T06:15:44;12.77;;;2.77;;
24897;SDS011;12957;49.434;8.684;2024-01-27T06:18:09;8.57;;;2.53;;
24897;SDS011;12957;49.434;8.684;2024-01-27T06:20:35;10.30;;;3.03;;
24897;SDS011;12957;49.434;8.684;2024-01-27T06:23:00;16.37;;;3.67;;
24897;SDS011;12957;49.434;8.684;2024-01-27T06:25:26;9.10;;;2.50;;
24897;SDS011;12957;49.434;8.684;2024-01-27T06:27:51;12.60;;;2.40;;
24897;SDS011;12957;49.434;8.684;2024-01-27T06:30:16;9.67;;;2.40;;
24897;SDS011;12957;49.434;8.684;2024-01-27T06:32:43;11.03;;;2.70;;
24897;SDS011;12957;49.434;8.684;2024-01-27T06:35:08;7.90;;;2.60;;
24897;SDS011;12957;49.434;8.684;2024-01-27T06:37:34;12.63;;;2.60;;
24897;SDS011;12957;49.434;8.684;2024-01-27T06:40:00;11.70;;;2.30;;
24897;SDS011;12957;49.434;8.684;2024-01-27T06:42:25;8.23;;;2.33;;
24897;SDS011;12957;49.434;8.684;2024-01-27T06:44:51;7.77;;;2.40;;
24897;SDS011;12957;49.434;8.684;2024-01-27T06:47:16;5.73;;;2.57;;
24897;SDS011;12957;49.434;8.684;2024-01-27T06:49:42;8.67;;;2.23;;
24897;SDS011;12957;49.434;8.684;2024-01-27T06:52:07;9.00;;;2.37;;
24897;SDS011;12957;49.434;8.684;2024-01-27T06:54:33;9.17;;;2.83;;
24897;SDS011;12957;49.434;8.684;2024-01-27T06:57:01;7.17;;;2.53;;
24897;SDS011;12957;49.434;8.684;2024-01-27T06:59:27;9.20;;;2.57;;
24897;SDS011;12957;49.434;8.684;2024-01-27T07:01:53;12.93;;;2.70;;
24897;SDS011;12957;49.434;8.684;2024-01-27T07:04:18;9.77;;;2.30;;
24897;SDS011;12957;49.434;8.684;2024-01-27T07:06:44;7.27;;;2.13;;
24897;SDS011;12957;49.434;8.684;2024-01-27T07:09:10;4.90;;;2.23;;
24897;SDS011;12957;49.434;8.684;2024-01-27T07:11:36;7.80;;;2.37;;
24897;SDS011;12957;49.434;8.684;2024-01-27T07:14:02;4.77;;;2.10;;
24897;SDS011;12957;49.434;8.684;2024-01-27T07:16:28;8.57;;;2.80;;
24897;SDS011;12957;49.434;8.684;2024-01-27T07:18:54;8.40;;;2.33;;
24897;SDS011;12957;49.434;8.684;2024-01-27T07:21:19;9.93;;;2.90;;
24897;SDS011;12957;49.434;8.684;2024-01-27T07:23:45;9.67;;;2.33;;
24897;SDS011;12957;49.434;8.684;2024-01-27T07:26:10;11.70;;;2.50;;
24897;SDS011;12957;49.434;8.684;2024-01-27T07:28:36;12.37;;;2.33;;
24897;SDS011;12957;49.434;8.684;2024-01-27T07:31:02;13.70;;;2.30;;
24897;SDS011;12957;49.434;8.684;2024-01-27T07:33:28;10.77;;;2.30;;
24897;SDS011;12957;49.434;8.684;2024-01-27T07:35:54;9.60;;;2.33;;
24897;SDS011;12957;49.434;8.684;2024-01-27T07:38:19;6.90;;;2.37;;
24897;SDS011;12957;49.434;8.684;2024-01-27T07:40:45;4.23;;;2.10;;
24897;SDS011;12957;49.434;8.684;2024-01-27T07:43:10;8.47;;;2.80;;
24897;SDS011;12957;49.434;8.684;2024-01-27T07:45:36;10.13;;;2.33;;
24897;SDS011;12957;49.434;8.684;2024-01-27T07:48:01;15.10;;;2.40;;
24897;SDS011;12957;49.434;8.684;2024-01-27T07:50:27;7.23;;;2.63;;
24897;SDS011;12957;49.434;8.684;2024-01-27T07:52:52;10.10;;;2.40;;
24897;SDS011;12957;49.434;8.684;2024-01-27T07:55:17;10.13;;;2.07;;
24897;SDS011;12957;49.434;8.684;2024-01-27T07:57:43;15.83;;;2.67;;
24897;SDS011;12957;49.434;8.684;2024-01-27T08:00:09;11.40;;;2.20;;
24897;SDS011;12957;49.434;8.684;2024-01-27T08:02:35;7.60;;;2.77;;
24897;SDS011;12957;49.434;8.684;2024-01-27T08:05:00;8.20;;;2.80;;
24897;SDS011;12957;49.434;8.684;2024-01-27T08:07:28;17.73;;;2.83;;
24897;SDS011;12957;49.434;8.684;2024-01-27T08:09:54;6.00;;;1.83;;
24897;SDS011;12957;49.434;8.684;2024-01-27T08:12:21;10.40;;;2.30;;
24897;SDS011;12957;49.434;8.684;2024-01-27T08:14:47;12.30;;;2.50;;
24897;SDS011;12957;49.434;8.684;2024-01-27T08:17:13;13.07;;;2.40;;
24897;SDS011;12957;49.434;8.684;2024-01-27T08:19:38;13.60;;;2.73;;
24897;SDS011;12957;49.434;8.684;2024-01-27T08:22:04;14.33;;;2.40;;
24897;SDS011;12957;49.434;8.684;2024-01-27T08:24:29;15.20;;;2.60;;
24897;SDS011;12957;49.434;8.684;2024-01-27T08:26:54;9.00;;;2.60;;
24897;SDS011;12957;49.434;8.684;2024-01-27T08:29:20;14.23;;;2.73;;
24897;SDS011;12957;49.434;8.684;2024-01-27T08:31:45;7.57;;;2.40;;
24897;SDS011;12957;49.434;8.684;2024-01-27T08:34:11;11.27;;;2.53;;
24897;SDS011;12957;49.434;8.684;2024-01-27T08:36:40;7.50;;;1.90;;
24897;SDS011;12957;49.434;8.684;2024-01-27T08:39:05;6.43;;;2.20;;
24897;SDS011;12957;49.434;8.684;2024-01-27T08:41:32;12.33;;;2.40;;
24897;SDS011;12957;49.434;8.684;2024-01-27T08:43:58;12.27;;;4.70;;
24897;SDS011;12957;49.434;8.684;2024-01-27T08:46:23;6.23;;;1.83;;
24897;SDS011;12957;49.434;8.684;2024-01-27T08:48:49;8.47;;;2.10;;
24897;SDS011;12957;49.434;8.684;2024-01-27T08:51:14;7.43;;;2.03;;
24897;SDS011;12957;49.434;8.684;2024-01-27T08:53:41;5.67;;;1.60;;
24897;SDS011;12957;49.434;8.684;2024-01-27T08:56:13;11.70;;;2.10;;
24897;SDS011;12957;49.434;8.684;2024-01-27T08:58:39;8.70;;;1.80;;
24897;SDS011;12957;49.434;8.684;2024-01-27T09:01:04;6.80;;;1.97;;
24897;SDS011;12957;49.434;8.684;2024-01-27T09:03:32;7.15;;;2.15;;
24897;SDS011;12957;49.434;8.684;2024-01-27T09:05:58;7.50;;;2.28;;
24897;SDS011;12957;49.434;8.684;2024-01-27T09:08:23;7.43;;;1.93;;
24897;SDS011;12957;49.434;8.684;2024-01-27T09:10:49;9.77;;;1.93;;
24897;SDS011;12957;49.434;8.684;2024-01-27T09:13:15;7.28;;;2.25;;
24897;SDS011;12957;49.434;8.684;2024-01-27T09:15:41;7.20;;;2.08;;
24897;SDS011;12957;49.434;8.684;2024-01-27T09:18:06;5.72;;;2.10;;
24897;SDS011;12957;49.434;8.684;2024-01-27T09:20:32;6.57;;;2.25;;
24897;SDS011;12957;49.434;8.684;2024-01-27T09:22:57;10.50;;;3.13;;
24897;SDS011;12957;49.434;8.684;2024-01-27T09:25:23;7.00;;;2.20;;
24897;SDS011;12957;49.434;8.684;2024-01-27T09:27:49;6.78;;;2.90;;
24897;SDS011;12957;49.434;8.684;2024-01-27T09:30:15;9.50;;;3.55;;
24897;SDS011;12957;49.434;8.684;2024-01-27T09:32:40;8.80;;;4.13;;
24897;SDS011;12957;49.434;8.684;2024-01-27T09:35:06;10.35;;;3.95;;
24897;SDS011;12957;49.434;8.684;2024-01-27T09:37:32;7.75;;;4.15;;
24897;SDS011;12957;49.434;8.684;2024-01-27T09:39:58;9.07;;;4.30;;
24897;SDS011;12957;49.434;8.684;2024-01-27T09:42:25;6.78;;;3.47;;
24897;SDS011;12957;49.434;8.684;2024-01-27T09:44:51;10.27;;;4.28;;
24897;SDS011;12957;49.434;8.684;2024-01-27T09:47:17;11.82;;;4.40;;
24897;SDS011;12957;49.434;8.684;2024-01-27T09:49:44;7.60;;;3.47;;
24897;SDS011;12957;49.434;8.684;2024-01-27T09:52:10;9.75;;;3.83;;
24897;SDS011;12957;49.434;8.684;2024-01-27T09:54:36;11.25;;;4.57;;
24897;SDS011;12957;49.434;8.684;2024-01-27T09:57:02;9.43;;;3.95;;
24897;SDS011;12957;49.434;8.684;2024-01-27T09:59:28;13.35;;;3.90;;
24897;SDS011;12957;49.434;8.684;2024-01-27T10:01:55;12.32;;;3.97;;
24897;SDS011;12957;49.434;8.684;2024-01-27T10:04:22;9.95;;;3.75;;
24897;SDS011;12957;49.434;8.684;2024-01-27T10:06:48;7.03;;;3.22;;
24897;SDS011;12957;49.434;8.684;2024-01-27T10:09:15;7.47;;;3.42;;
24897;SDS011;12957;49.434;8.684;2024-01-27T10:11:42;7.70;;;3.40;;
24897;SDS011;12957;49.434;8.684;2024-01-27T10:14:10;12.23;;;3.45;;
24897;SDS011;12957;49.434;8.684;2024-01-27T10:16:40;9.52;;;2.95;;
24897;SDS011;12957;49.434;8.684;2024-01-27T10:19:12;14.13;;;2.80;;
24897;SDS011;12957;49.434;8.684;2024-01-27T10:21:42;7.93;;;2.92;;
24897;SDS011;12957;49.434;8.684;2024-01-27T10:24:08;11.85;;;2.70;;
24897;SDS011;12957;49.434;8.684;2024-01-27T10:26:33;10.65;;;3.10;;
24897;SDS011;12957;49.434;8.684;2024-01-27T10:29:00;7.22;;;2.90;;
24897;SDS011;12957;49.434;8.684;2024-01-27T10:31:30;4.75;;;2.35;;
24897;SDS011;12957;49.434;8.684;2024-01-27T10:33:58;7.55;;;2.67;;
24897;SDS011;12957;49.434;8.684;2024-01-27T10:36:26;11.75;;;2.72;;
24897;SDS011;12957;49.434;8.684;2024-01-27T10:38:52;7.30;;;2.70;;
24897;SDS011;12957;49.434;8.684;2024-01-27T10:41:24;8.73;;;2.38;;
24897;SDS011;12957;49.434;8.684;2024-01-27T10:43:51;8.43;;;2.47;;
24897;SDS011;12957;49.434;8.684;2024-01-27T10:46:19;8.45;;;2.97;;
24897;SDS011;12957;49.434;8.684;2024-01-27T10:48:47;4.60;;;2.10;;
24897;SDS011;12957;49.434;8.684;2024-01-27T10:51:15;8.40;;;2.75;;
24897;SDS011;12957;49.434;8.684;2024-01-27T10:53:43;8.82;;;2.40;;
24897;SDS011;12957;49.434;8.684;2024-01-27T10:56:09;12.15;;;3.05;;
24897;SDS011;12957;49.434;8.684;2024-01-27T10:58:35;11.20;;;2.80;;
24897;SDS011;12957;49.434;8.684;2024-01-27T11:01:06;6.72;;;2.60;;
24897;SDS011;12957;49.434;8.684;2024-01-27T11:03:33;10.00;;;3.72;;
24897;SDS011;12957;49.434;8.684;2024-01-27T11:05:59;7.70;;;2.70;;
24897;SDS011;12957;49.434;8.684;2024-01-27T11:08:25;9.75;;;2.90;;
24897;SDS011;12957;49.434;8.684;2024-01-27T11:10:52;15.57;;;2.85;;
24897;SDS011;12957;49.434;8.684;2024-01-27T11:13:18;6.93;;;2.40;;
24897;SDS011;12957;49.434;8.684;2024-01-27T11:15:50;6.50;;;2.35;;
24897;SDS011;12957;49.434;8.684;2024-01-27T11:18:17;7.32;;;2.50;;
24897;SDS011;12957;49.434;8.684;2024-01-27T11:20:44;7.10;;;2.58;;
24897;SDS011;12957;49.434;8.684;2024-01-27T11:23:10;11.45;;;2.78;;
24897;SDS011;12957;49.434;8.684;2024-01-27T11:25:37;6.72;;;2.90;;
24897;SDS011;12957;49.434;8.684;2024-01-27T11:28:10;5.53;;;2.35;;
24897;SDS011;12957;49.434;8.684;2024-01-27T11:30:41;9.07;;;2.25;;
24897;SDS011;12957;49.434;8.684;2024-01-27T11:33:10;9.45;;;2.42;;
24897;SDS011;12957;49.434;8.684;2024-01-27T11:35:35;6.05;;;2.55;;
24897;SDS011;12957;49.434;8.684;2024-01-27T11:38:01;8.70;;;2.50;;
24897;SDS011;12957;49.434;8.684;2024-01-27T11:40:26;6.15;;;2.20;;
24897;SDS011;12957;49.434;8.684;2024-01-27T11:42:56;6.45;;;2.53;;
24897;SDS011;12957;49.434;8.684;2024-01-27T11:45:22;7.47;;;3.17;;
24897;SDS011;12957;49.434;8.684;2024-01-27T11:47:48;9.70;;;2.50;;
24897;SDS011;12957;49.434;8.684;2024-01-27T11:50:13;13.93;;;3.22;;
24897;SDS011;12957;49.434;8.684;2024-01-27T11:52:39;7.30;;;2.28;;
24897;SDS011;12957;49.434;8.684;2024-01-27T11:55:04;13.40;;;3.25;;
24897;SDS011;12957;49.434;8.684;2024-01-27T11:57:30;11.15;;;2.90;;
24897;SDS011;12957;49.434;8.684;2024-01-27T11:59:56;7.30;;;2.75;;
24897;SDS011;12957;49.434;8.684;2024-01-27T12:02:21;9.13;;;2.83;;
24897;SDS011;12957;49.434;8.684;2024-01-27T12:04:47;12.70;;;3.08;;
24897;SDS011;12957;49.434;8.684;2024-01-27T12:07:13;7.60;;;3.40;;
24897;SDS011;12957;49.434;8.684;2024-01-27T12:09:39;12.05;;;3.45;;
24897;SDS011;12957;49.434;8.684;2024-01-27T12:12:05;12.18;;;3.45;;
24897;SDS011;12957;49.434;8.684;2024-01-27T12:14:38;7.18;;;3.00;;
24897;SDS011;12957;49.434;8.684;2024-01-27T12:17:09;8.90;;;2.97;;
24897;SDS011;12957;49.434;8.684;2024-01-27T12:19:35;9.13;;;2.92;;
24897;SDS011;12957;49.434;8.684;2024-01-27T12:22:01;13.20;;;3.17;;
24897;SDS011;12957;49.434;8.684;2024-01-27T12:24:27;15.48;;;2.70;;
24897;SDS011;12957;49.434;8.684;2024-01-27T12:26:52;9.45;;;3.00;;
24897;SDS011;12957;49.434;8.684;2024-01-27T12:29:21;8.73;;;3.35;;
24897;SDS011;12957;49.434;8.684;2024-01-27T12:31:46;16.80;;;4.05;;
24897;SDS011;12957;49.434;8.684;2024-01-27T12:34:12;9.82;;;3.45;;
24897;SDS011;12957;49.434;8.684;2024-01-27T12:36:41;10.27;;;3.50;;
24897;SDS011;12957;49.434;8.684;2024-01-27T12:39:07;7.82;;;3.03;;
24897;SDS011;12957;49.434;8.684;2024-01-27T12:41:33;9.90;;;3.58;;
24897;SDS011;12957;49.434;8.684;2024-01-27T12:43:59;13.02;;;3.03;;
24897;SDS011;12957;49.434;8.684;2024-01-27T12:46:25;11.05;;;3.13;;
24897;SDS011;12957;49.434;8.684;2024-01-27T12:48:51;9.40;;;3.15;;
24897;SDS011;12957;49.434;8.684;2024-01-27T12:51:16;12.27;;;3.13;;
24897;SDS011;12957;49.434;8.684;2024-01-27T12:53:42;12.32;;;2.70;;
24897;SDS011;12957;49.434;8.684;2024-01-27T12:56:13;9.05;;;2.72;;
24897;SDS011;12957;49.434;8.684;2024-01-27T12:58:39;7.43;;;2.60;;
24897;SDS011;12957;49.434;8.684;2024-01-27T13:01:05;11.38;;;3.00;;
24897;SDS011;12957;49.434;8.684;2024-01-27T13:03:31;12.25;;;2.97;;
24897;SDS011;12957;49.434;8.684;2024-01-27T13:05:56;11.65;;;3.25;;
24897;SDS011;12957;49.434;8.684;2024-01-27T13:08:22;11.45;;;3.22;;
24897;SDS011;12957;49.434;8.684;2024-01-27T13:10:48;9.15;;;2.97;;
24897;SDS011;12957;49.434;8.684;2024-01-27T13:13:13;11.15;;;3.03;;
24897;SDS011;12957;49.434;8.684;2024-01-27T13:15:39;7.45;;;3.00;;
24897;SDS011;12957;49.434;8.684;2024-01-27T13:18:05;8.30;;;3.13;;
24897;SDS011;12957;49.434;8.684;2024-01-27T13:20:31;7.32;;;3.15;;
24897;SDS011;12957;49.434;8.684;2024-01-27T13:22:56;10.52;;;3.70;;
24897;SDS011;12957;49.434;8.684;2024-01-27T13:25:23;7.90;;;3.08;;
24897;SDS011;12957;49.434;8.684;2024-01-27T13:27:48;7.78;;;2.60;;
24897;SDS011;12957;49.434;8.684;2024-01-27T13:30:14;7.43;;;2.80;;
24897;SDS011;12957;49.434;8.684;2024-01-27T13:32:39;10.65;;;2.70;;
24897;SDS011;12957;49.434;8.684;2024-01-27T13:35:06;9.95;;;3.78;;
24897;SDS011;12957;49.434;8.684;2024-01-27T13:37:33;11.45;;;3.47;;
24897;SDS011;12957;49.434;8.684;2024-01-27T13:40:02;7.95;;;2.80;;
24897;SDS011;12957;49.434;8.684;2024-01-27T13:42:29;15.48;;;2.85;;
24897;SDS011;12957;49.434;8.684;2024-01-27T13:44:55;12.45;;;3.17;;
24897;SDS011;12957;49.434;8.684;2024-01-27T13:47:21;13.73;;;2.53;;
24897;SDS011;12957;49.434;8.684;2024-01-27T13:49:46;8.95;;;2.80;;
24897;SDS011;12957;49.434;8.684;2024-01-27T13:52:12;10.50;;;2.40;;
24897;SDS011;12957;49.434;8.684;2024-01-27T13:54:38;7.55;;;2.50;;
24897;SDS011;12957;49.434;8.684;2024-01-27T13:57:03;8.60;;;2.58;;
24897;SDS011;12957;49.434;8.684;2024-01-27T13:59:29;11.52;;;2.75;;
24897;SDS011;12957;49.434;8.684;2024-01-27T14:01:55;8.93;;;2.47;;
24897;SDS011;12957;49.434;8.684;2024-01-27T14:04:22;15.00;;;2.90;;
24897;SDS011;12957;49.434;8.684;2024-01-27T14:06:49;13.73;;;2.63;;
24897;SDS011;12957;49.434;8.684;2024-01-27T14:09:21;5.43;;;2.15;;
24897;SDS011;12957;49.434;8.684;2024-01-27T14:11:48;9.38;;;2.30;;
24897;SDS011;12957;49.434;8.684;2024-01-27T14:14:13;11.60;;;2.55;;
24897;SDS011;12957;49.434;8.684;2024-01-27T14:16:39;8.38;;;2.47;;
24897;SDS011;12957;49.434;8.684;2024-01-27T14:19:05;6.05;;;1.90;;
24897;SDS011;12957;49.434;8.684;2024-01-27T14:21:31;7.70;;;2.28;;
24897;SDS011;12957;49.434;8.684;2024-01-27T14:23:57;8.57;;;2.20;;
24897;SDS011;12957;49.434;8.684;2024-01-27T14:26:27;7.05;;;2.25;;
24897;SDS011;12957;49.434;8.684;2024-01-27T14:28:53;12.30;;;2.72;;
24897;SDS011;12957;49.434;8.684;2024-01-27T14:31:19;9.13;;;2.70;;
24897;SDS011;12957;49.434;8.684;2024-01-27T14:33:44;8.93;;;2.42;;